createdAt,value
2018-05-26T00:01:52.609Z,11.96
2018-05-26T00:04:18.408Z,12.00
2018-05-26T00:06:44.157Z,11.87
2018-05-26T00:09:10.333Z,11.75
2018-05-26T00:11:36.092Z,11.75
2018-05-26T00:14:01.837Z,11.70
2018-05-26T00:16:27.601Z,11.70
2018-05-26T00:18:53.753Z,11.61
2018-05-26T00:21:19.499Z,11.60
2018-05-26T00:23:45.223Z,11.68
2018-05-26T00:26:11.919Z,11.59
2018-05-26T00:28:38.120Z,11.55
2018-05-26T00:31:04.371Z,11.60
2018-05-26T00:33:30.122Z,11.51
2018-05-26T00:35:56.652Z,11.52
2018-05-26T00:38:22.399Z,11.52
2018-05-26T00:40:48.224Z,11.47
2018-05-26T00:43:13.951Z,11.55
2018-05-26T00:45:39.913Z,11.65
2018-05-26T00:48:05.649Z,11.79
2018-05-26T00:50:31.380Z,11.83
2018-05-26T00:52:57.116Z,11.64
2018-05-26T00:55:22.851Z,11.49
2018-05-26T00:57:48.576Z,11.56
2018-05-26T01:00:14.493Z,11.58
2018-05-26T01:02:40.236Z,11.45
2018-05-26T01:05:05.967Z,11.39
2018-05-26T01:07:32.413Z,11.26
2018-05-26T01:09:58.152Z,11.24
2018-05-26T01:12:23.886Z,11.27
2018-05-26T01:14:49.691Z,11.25
2018-05-26T01:17:15.440Z,11.38
2018-05-26T01:19:41.177Z,11.26
2018-05-26T01:22:06.929Z,11.31
2018-05-26T01:24:32.665Z,11.27
2018-05-26T01:26:58.399Z,11.32
2018-05-26T01:29:24.679Z,11.29
2018-05-26T01:31:50.448Z,11.21
2018-05-26T01:34:16.603Z,11.19
2018-05-26T01:36:42.890Z,11.18
2018-05-26T01:39:08.648Z,11.14
2018-05-26T01:41:34.398Z,11.20
2018-05-26T01:44:00.134Z,11.20
2018-05-26T01:46:25.868Z,11.18
2018-05-26T01:48:51.612Z,11.15
2018-05-26T01:51:17.360Z,11.11
2018-05-26T01:53:43.542Z,11.13
2018-05-26T01:56:09.329Z,11.11
2018-05-26T01:58:35.073Z,11.09
2018-05-26T02:01:00.808Z,11.08
2018-05-26T02:03:26.566Z,11.06
2018-05-26T02:05:52.301Z,11.14
2018-05-26T02:08:18.032Z,11.11
2018-05-26T02:10:44.341Z,11.13
2018-05-26T02:13:10.540Z,11.11
2018-05-26T02:15:36.825Z,11.11
2018-05-26T02:18:03.948Z,11.08
2018-05-26T02:20:29.697Z,11.05
2018-05-26T02:22:55.434Z,11.11
2018-05-26T02:25:21.377Z,11.08
2018-05-26T02:27:47.122Z,11.10
2018-05-26T02:30:12.865Z,11.12
2018-05-26T02:32:38.597Z,11.16
2018-05-26T02:35:04.321Z,11.22
2018-05-26T02:37:30.174Z,11.30
2018-05-26T02:39:56.100Z,11.24
2018-05-26T02:42:21.843Z,11.28
2018-05-26T02:44:48.100Z,11.36
2018-05-26T02:47:13.868Z,11.34
2018-05-26T02:49:39.608Z,11.40
2018-05-26T02:52:05.357Z,11.40
2018-05-26T02:54:31.520Z,11.59
2018-05-26T02:56:57.497Z,11.56
2018-05-26T02:59:23.225Z,11.53
2018-05-26T03:01:48.956Z,11.60
2018-05-26T03:04:22.876Z,11.69
2018-05-26T03:06:54.736Z,11.77
2018-05-26T03:09:26.753Z,11.77
2018-05-26T03:11:58.740Z,11.84
2018-05-26T03:14:30.543Z,11.80
2018-05-26T03:16:57.104Z,11.83
2018-05-26T03:19:22.847Z,11.93
2018-05-26T03:21:48.572Z,11.99
2018-05-26T03:24:14.320Z,12.07
2018-05-26T03:26:40.067Z,12.14
2018-05-26T03:29:05.792Z,12.25
2018-05-26T03:31:31.525Z,12.17
2018-05-26T03:33:57.255Z,12.15
2018-05-26T03:36:23.020Z,12.13
2018-05-26T03:38:48.723Z,12.11
2018-05-26T03:41:14.459Z,12.20
2018-05-26T03:43:40.198Z,12.25
2018-05-26T03:46:05.940Z,12.22
2018-05-26T03:48:31.680Z,12.25
2018-05-26T03:50:57.403Z,12.35
2018-05-26T03:53:23.138Z,12.32
2018-05-26T03:56:01.288Z,12.50
2018-05-26T03:58:39.607Z,12.52
2018-05-26T04:01:05.356Z,12.48
2018-05-26T04:03:31.101Z,12.45
2018-05-26T04:05:56.876Z,12.33
2018-05-26T04:08:22.564Z,12.39
2018-05-26T04:10:48.292Z,12.38
2018-05-26T04:13:14.026Z,12.55
2018-05-26T04:15:39.765Z,12.70
2018-05-26T04:18:05.539Z,12.55
2018-05-26T04:20:31.318Z,12.55
2018-05-26T04:22:57.049Z,12.57
2018-05-26T04:25:22.812Z,12.68
2018-05-26T04:27:48.550Z,12.73
2018-05-26T04:30:14.291Z,12.69
2018-05-26T04:32:40.031Z,12.77
2018-05-26T04:35:05.784Z,12.83
2018-05-26T04:37:31.514Z,12.86
2018-05-26T04:39:57.260Z,12.86
2018-05-26T04:42:23.016Z,12.96
2018-05-26T04:44:48.777Z,13.06
2018-05-26T04:47:14.512Z,13.00
2018-05-26T04:49:40.260Z,13.04
2018-05-26T04:52:05.996Z,13.20
2018-05-26T04:54:31.736Z,13.36
2018-05-26T04:56:57.472Z,13.37
2018-05-26T04:59:23.215Z,13.49
2018-05-26T05:01:48.964Z,13.50
2018-05-26T05:04:14.721Z,13.57
2018-05-26T05:06:40.472Z,13.62
2018-05-26T05:09:06.222Z,13.65
2018-05-26T05:11:31.983Z,13.87
2018-05-26T05:13:57.738Z,13.87
2018-05-26T05:16:23.483Z,13.85
2018-05-26T05:18:49.246Z,13.94
2018-05-26T05:21:14.990Z,14.04
2018-05-26T05:23:47.719Z,14.12
2018-05-26T05:26:13.472Z,14.40
2018-05-26T05:28:39.217Z,14.30
2018-05-26T05:31:04.951Z,14.28
2018-05-26T05:33:30.698Z,14.20
2018-05-26T05:35:56.432Z,14.54
2018-05-26T05:38:22.184Z,14.62
2018-05-26T05:40:47.927Z,14.80
2018-05-26T05:43:13.681Z,14.84
2018-05-26T05:45:39.437Z,14.85
2018-05-26T05:48:05.172Z,14.92
2018-05-26T05:50:30.932Z,15.06
2018-05-26T05:52:56.659Z,15.27
2018-05-26T05:55:22.408Z,15.35
2018-05-26T05:57:48.163Z,15.35
2018-05-26T06:00:13.923Z,15.71
2018-05-26T06:02:39.665Z,15.57
2018-05-26T06:05:05.420Z,15.81
2018-05-26T06:07:31.176Z,15.87
2018-05-26T06:09:56.919Z,15.89
2018-05-26T06:12:22.644Z,16.04
2018-05-26T06:14:48.389Z,16.22
2018-05-26T06:17:14.146Z,16.18
2018-05-26T06:19:39.888Z,16.22
2018-05-26T06:22:05.619Z,16.17
2018-05-26T06:24:31.364Z,16.58
2018-05-26T06:26:57.093Z,16.26
2018-05-26T06:29:22.828Z,16.59
2018-05-26T06:31:48.576Z,16.86
2018-05-26T06:34:14.287Z,16.33
2018-05-26T06:36:40.036Z,16.73
2018-05-26T06:39:05.777Z,16.88
2018-05-26T06:41:31.512Z,17.18
2018-05-26T06:43:57.252Z,17.69
2018-05-26T06:46:23.000Z,17.83
2018-05-26T06:48:48.727Z,17.73
2018-05-26T06:51:14.531Z,17.42
2018-05-26T06:53:40.200Z,17.55
2018-05-26T06:56:05.932Z,18.05
2018-05-26T06:58:31.664Z,17.99
2018-05-26T07:00:57.412Z,18.57
2018-05-26T07:03:23.135Z,18.27
2018-05-26T07:05:48.898Z,17.84
2018-05-26T07:08:14.639Z,18.25
2018-05-26T07:10:40.390Z,19.02
2018-05-26T07:13:06.121Z,19.24
2018-05-26T07:15:31.866Z,19.81
2018-05-26T07:17:57.601Z,19.68
2018-05-26T07:20:23.350Z,19.67
2018-05-26T07:22:49.081Z,19.30
2018-05-26T07:25:14.833Z,19.09
2018-05-26T07:27:40.559Z,20.08
2018-05-26T07:30:06.307Z,20.14
2018-05-26T07:32:32.036Z,20.39
2018-05-26T07:34:57.772Z,20.58
2018-05-26T07:37:23.524Z,20.47
2018-05-26T07:39:49.268Z,20.44
2018-05-26T07:42:14.997Z,21.43
2018-05-26T07:44:40.737Z,21.42
2018-05-26T07:47:06.480Z,20.21
2018-05-26T07:49:32.217Z,21.04
2018-05-26T07:51:57.955Z,21.89
2018-05-26T07:54:23.690Z,21.48
2018-05-26T07:56:49.436Z,21.21
2018-05-26T07:59:15.158Z,21.38
2018-05-26T08:01:40.920Z,20.78
2018-05-26T08:04:06.656Z,21.10
2018-05-26T08:06:32.396Z,21.41
2018-05-26T08:08:58.133Z,21.47
2018-05-26T08:11:23.879Z,20.77
2018-05-26T08:13:49.640Z,21.91
2018-05-26T08:16:15.389Z,21.70
2018-05-26T08:18:41.136Z,21.96
2018-05-26T08:21:06.880Z,21.71
2018-05-26T08:23:32.617Z,22.53
2018-05-26T08:25:58.368Z,22.59
2018-05-26T08:28:24.120Z,23.28
2018-05-26T08:30:49.881Z,22.19
2018-05-26T08:33:15.609Z,22.32
2018-05-26T08:35:41.352Z,23.07
2018-05-26T08:38:07.084Z,22.79
2018-05-26T08:40:32.830Z,22.66
2018-05-26T08:42:58.571Z,23.55
2018-05-26T08:45:24.319Z,23.14
2018-05-26T08:47:50.073Z,23.11
2018-05-26T08:50:15.800Z,23.48
2018-05-26T08:55:14.153Z,23.21
2018-05-26T08:57:39.900Z,23.23
2018-05-26T09:02:38.014Z,22.83
2018-05-26T09:05:03.746Z,23.27
2018-05-26T09:07:29.485Z,23.37
2018-05-26T09:09:55.213Z,23.45
2018-05-26T09:12:21.798Z,23.85
2018-05-26T09:14:47.540Z,24.51
2018-05-26T09:17:13.313Z,23.25
2018-05-26T09:19:39.056Z,24.09
2018-05-26T09:22:04.812Z,24.90
2018-05-26T09:24:30.562Z,24.78
2018-05-26T09:26:56.319Z,24.66
2018-05-26T09:29:22.096Z,24.83
2018-05-26T09:31:47.856Z,23.76
2018-05-26T09:34:13.603Z,23.19
2018-05-26T09:36:39.352Z,24.34
2018-05-26T09:39:05.112Z,24.73
2018-05-26T09:41:30.852Z,24.46
2018-05-26T09:43:56.609Z,24.81
2018-05-26T09:46:22.368Z,24.43
2018-05-26T09:48:48.114Z,24.73
2018-05-26T09:51:13.861Z,24.83
2018-05-26T09:53:39.605Z,24.71
2018-05-26T09:56:05.381Z,25.36
2018-05-26T09:58:31.108Z,25.08
2018-05-26T10:00:56.856Z,25.11
2018-05-26T10:03:22.601Z,25.75
2018-05-26T10:05:48.352Z,24.95
2018-05-26T10:08:14.104Z,25.18
2018-05-26T10:10:39.892Z,25.32
2018-05-26T10:13:05.636Z,25.77
2018-05-26T10:15:31.389Z,24.59
2018-05-26T10:17:57.149Z,25.33
2018-05-26T10:20:22.900Z,26.25
2018-05-26T10:22:48.650Z,26.39
2018-05-26T10:25:14.403Z,25.64
2018-05-26T10:27:40.166Z,24.52
2018-05-26T10:30:05.928Z,24.75
2018-05-26T10:32:31.668Z,25.14
2018-05-26T10:34:57.420Z,25.94
2018-05-26T10:37:23.163Z,26.20
2018-05-26T10:39:48.923Z,26.04
2018-05-26T10:42:14.737Z,25.92
2018-05-26T10:44:40.472Z,25.84
2018-05-26T10:47:06.217Z,26.43
2018-05-26T10:49:31.973Z,26.21
2018-05-26T10:51:57.724Z,25.12
2018-05-26T10:54:23.469Z,24.71
2018-05-26T10:56:49.241Z,25.23
2018-05-26T10:59:14.992Z,25.59
2018-05-26T11:01:40.776Z,24.70
2018-05-26T11:04:06.571Z,25.60
2018-05-26T11:06:45.387Z,25.26
2018-05-26T11:09:11.123Z,25.67
2018-05-26T11:11:36.874Z,24.76
2018-05-26T11:14:02.632Z,25.35
2018-05-26T11:16:28.399Z,25.04
2018-05-26T11:18:54.193Z,25.18
2018-05-26T11:21:19.908Z,24.80
2018-05-26T11:23:45.664Z,25.06
2018-05-26T11:26:11.430Z,25.31
2018-05-26T11:28:37.167Z,25.56
2018-05-26T11:31:02.955Z,26.32
2018-05-26T11:33:28.697Z,25.80
2018-05-26T11:35:54.440Z,25.55
2018-05-26T11:38:20.191Z,26.13
2018-05-26T11:40:45.945Z,25.84
2018-05-26T11:43:12.218Z,25.72
2018-05-26T11:45:37.968Z,26.37
2018-05-26T11:48:03.728Z,26.87
2018-05-26T11:50:29.999Z,25.53
2018-05-26T11:52:55.758Z,25.78
2018-05-26T11:55:21.500Z,26.15
2018-05-26T11:57:47.246Z,26.29
2018-05-26T12:00:13.001Z,26.56
2018-05-26T12:02:38.756Z,26.38
2018-05-26T12:05:04.512Z,25.42
2018-05-26T12:07:30.264Z,25.32
2018-05-26T12:09:56.004Z,24.55
2018-05-26T12:12:21.759Z,25.36
2018-05-26T12:14:47.504Z,25.81
2018-05-26T12:17:13.268Z,26.45
2018-05-26T12:19:39.037Z,25.22
2018-05-26T12:22:04.776Z,25.30
2018-05-26T12:24:30.532Z,26.13
2018-05-26T12:26:56.359Z,26.22
2018-05-26T12:29:22.055Z,26.33
2018-05-26T12:31:47.799Z,25.80
2018-05-26T12:34:13.543Z,26.02
2018-05-26T12:36:39.297Z,26.38
2018-05-26T12:39:05.054Z,26.42
2018-05-26T12:41:30.797Z,25.36
2018-05-26T12:43:56.555Z,26.40
2018-05-26T12:46:22.306Z,25.55
2018-05-26T12:48:48.076Z,25.79
2018-05-26T12:51:13.821Z,26.09
2018-05-26T12:53:39.596Z,26.69
2018-05-26T12:56:05.497Z,26.09
2018-05-26T12:58:31.277Z,25.50
2018-05-26T13:00:57.132Z,26.37
2018-05-26T13:03:23.172Z,25.53
2018-05-26T13:05:48.918Z,26.77
2018-05-26T13:08:14.678Z,26.79
2018-05-26T13:10:40.439Z,26.90
2018-05-26T13:13:06.203Z,26.37
2018-05-26T13:15:31.956Z,26.98
2018-05-26T13:17:57.724Z,26.91
2018-05-26T13:20:23.464Z,26.33
2018-05-26T13:22:49.199Z,26.18
2018-05-26T13:25:14.933Z,26.14
2018-05-26T13:27:40.730Z,26.03
2018-05-26T13:30:06.471Z,26.35
2018-05-26T13:32:32.215Z,26.25
2018-05-26T13:34:57.955Z,26.39
2018-05-26T13:37:23.677Z,25.75
2018-05-26T13:39:49.419Z,25.22
2018-05-26T13:42:15.158Z,25.95
2018-05-26T13:44:40.889Z,25.72
2018-05-26T13:47:06.624Z,25.30
2018-05-26T13:49:32.381Z,25.64
2018-05-26T13:51:58.176Z,25.37
2018-05-26T13:54:23.866Z,24.75
2018-05-26T13:56:49.695Z,24.64
2018-05-26T13:59:15.432Z,24.89
2018-05-26T14:01:41.161Z,25.28
2018-05-26T14:04:06.902Z,25.18
2018-05-26T14:06:32.656Z,25.20
2018-05-26T14:08:58.404Z,25.20
2018-05-26T14:11:24.145Z,25.36
2018-05-26T14:13:49.884Z,24.86
2018-05-26T14:16:15.635Z,25.30
2018-05-26T14:18:41.396Z,24.90
2018-05-26T14:21:07.150Z,25.05
2018-05-26T14:23:32.908Z,25.00
2018-05-26T14:25:58.647Z,24.95
2018-05-26T14:28:24.388Z,24.86
2018-05-26T14:30:51.296Z,25.23
2018-05-26T14:33:17.044Z,25.11
2018-05-26T14:35:42.800Z,25.11
2018-05-26T14:38:08.533Z,24.45
2018-05-26T14:40:34.281Z,24.37
2018-05-26T14:43:00.014Z,24.64
2018-05-26T14:45:25.766Z,24.70
2018-05-26T14:47:51.511Z,24.66
2018-05-26T14:50:17.266Z,24.90
2018-05-26T14:52:43.016Z,24.47
2018-05-26T14:55:08.776Z,24.64
2018-05-26T14:57:34.501Z,24.70
2018-05-26T15:00:00.245Z,24.24
2018-05-26T15:02:26.003Z,24.57
2018-05-26T15:04:51.744Z,24.28
2018-05-26T15:07:17.497Z,23.79
2018-05-26T15:09:43.218Z,23.94
2018-05-26T15:12:08.956Z,24.03
2018-05-26T15:14:34.692Z,23.79
2018-05-26T15:17:00.436Z,24.14
2018-05-26T15:19:26.191Z,24.31
2018-05-26T15:21:51.932Z,24.44
2018-05-26T15:24:17.685Z,24.09
2018-05-26T15:26:43.497Z,23.86
2018-05-26T15:29:09.244Z,24.06
2018-05-26T15:31:34.989Z,23.83
2018-05-26T15:34:00.746Z,24.04
2018-05-26T15:36:26.517Z,23.73
2018-05-26T15:38:52.256Z,23.93
2018-05-26T15:41:18.024Z,23.74
2018-05-26T15:43:43.875Z,23.45
2018-05-26T15:46:09.626Z,24.17
2018-05-26T15:48:35.376Z,23.89
2018-05-26T15:51:01.120Z,24.01
2018-05-26T15:53:26.881Z,23.83
2018-05-26T15:55:52.648Z,23.76
2018-05-26T15:58:18.392Z,23.75
2018-05-26T16:00:44.149Z,23.87
2018-05-26T16:03:09.905Z,23.86
2018-05-26T16:05:35.696Z,23.81
2018-05-26T16:08:01.467Z,24.08
2018-05-26T16:10:27.567Z,23.80
2018-05-26T16:12:53.327Z,23.92
2018-05-26T16:15:19.090Z,23.66
2018-05-26T16:17:45.387Z,23.62
2018-05-26T16:20:11.802Z,23.81
2018-05-26T16:22:38.289Z,23.83
2018-05-26T16:25:05.141Z,23.73
2018-05-26T16:27:31.747Z,23.59
2018-05-26T16:29:58.293Z,23.54
2018-05-26T16:32:25.083Z,23.68
2018-05-26T16:34:50.837Z,23.63
2018-05-26T16:37:16.589Z,23.74
2018-05-26T16:39:42.315Z,24.06
2018-05-26T16:42:08.048Z,24.01
2018-05-26T16:44:35.209Z,23.53
2018-05-26T16:47:02.061Z,23.56
2018-05-26T16:49:28.531Z,23.50
2018-05-26T16:51:54.284Z,23.54
2018-05-26T16:54:20.045Z,23.54
2018-05-26T16:56:45.791Z,23.55
2018-05-26T16:59:11.532Z,23.69
2018-05-26T17:01:37.283Z,23.62
2018-05-26T17:04:03.023Z,23.76
2018-05-26T17:06:29.739Z,23.72
2018-05-26T17:08:56.899Z,23.65
2018-05-26T17:11:22.655Z,23.56
2018-05-26T17:13:48.391Z,23.39
2018-05-26T17:16:14.133Z,23.27
2018-05-26T17:18:39.880Z,23.23
2018-05-26T17:21:05.638Z,23.09
2018-05-26T17:23:31.381Z,22.95
2018-05-26T17:25:57.142Z,22.95
2018-05-26T17:28:22.875Z,22.85
2018-05-26T17:30:48.680Z,22.76
2018-05-26T17:33:14.386Z,22.94
2018-05-26T17:35:40.139Z,22.72
2018-05-26T17:38:05.891Z,22.64
2018-05-26T17:40:31.649Z,22.58
2018-05-26T17:42:57.385Z,22.47
2018-05-26T17:45:23.147Z,22.50
2018-05-26T17:47:48.892Z,22.50
2018-05-26T17:50:14.668Z,22.41
2018-05-26T17:52:40.399Z,22.24
2018-05-26T17:55:06.160Z,22.24
2018-05-26T17:57:31.928Z,22.21
2018-05-26T17:59:57.676Z,22.20
2018-05-26T18:02:23.431Z,22.07
2018-05-26T18:04:49.172Z,22.07
2018-05-26T18:07:14.920Z,21.99
2018-05-26T18:09:40.656Z,22.00
2018-05-26T18:12:06.418Z,21.89
2018-05-26T18:14:32.160Z,21.77
2018-05-26T18:16:57.902Z,21.57
2018-05-26T18:19:23.627Z,21.48
2018-05-26T18:21:49.361Z,21.56
2018-05-26T18:24:15.089Z,21.43
2018-05-26T18:26:40.842Z,21.50
2018-05-26T18:29:06.573Z,21.32
2018-05-26T18:31:32.329Z,21.29
2018-05-26T18:33:58.064Z,21.24
2018-05-26T18:36:23.807Z,21.20
2018-05-26T18:38:49.541Z,21.06
2018-05-26T18:41:15.275Z,21.04
2018-05-26T18:43:40.984Z,21.03
2018-05-26T18:46:06.712Z,20.99
2018-05-26T18:48:32.449Z,20.91
2018-05-26T18:50:58.186Z,20.70
2018-05-26T18:53:23.908Z,20.63
2018-05-26T18:55:49.657Z,20.52
2018-05-26T18:58:15.377Z,20.47
2018-05-26T19:00:41.104Z,20.39
2018-05-26T19:03:06.847Z,20.35
2018-05-26T19:05:32.563Z,20.18
2018-05-26T19:07:58.297Z,20.13
2018-05-26T19:10:24.034Z,20.11
2018-05-26T19:12:49.776Z,20.06
2018-05-26T19:15:15.505Z,19.96
2018-05-26T19:17:41.271Z,19.91
2018-05-26T19:20:07.005Z,19.79
2018-05-26T19:22:32.756Z,19.75
2018-05-26T19:24:58.488Z,19.68
2018-05-26T19:27:24.232Z,19.59
2018-05-26T19:29:49.987Z,19.49
2018-05-26T19:32:15.728Z,19.39
2018-05-26T19:34:41.463Z,19.31
2018-05-26T19:37:07.244Z,19.28
2018-05-26T19:39:32.961Z,19.28
2018-05-26T19:41:58.704Z,19.20
2018-05-26T19:44:24.437Z,19.19
2018-05-26T19:46:50.180Z,19.07
2018-05-26T19:49:15.913Z,18.99
2018-05-26T19:51:41.656Z,18.89
2018-05-26T19:54:07.395Z,18.76
2018-05-26T19:56:33.140Z,18.73
2018-05-26T19:58:58.876Z,18.66
2018-05-26T20:01:24.643Z,18.52
2018-05-26T20:03:50.377Z,18.46
2018-05-26T20:06:16.104Z,18.45
2018-05-26T20:08:41.858Z,18.37
2018-05-26T20:11:07.582Z,18.35
2018-05-26T20:13:33.336Z,18.39
2018-05-26T20:15:59.074Z,18.29
2018-05-26T20:18:24.823Z,18.29
2018-05-26T20:20:50.557Z,18.19
2018-05-26T20:23:16.296Z,18.14
2018-05-26T20:25:42.036Z,18.04
2018-05-26T20:28:07.792Z,18.01
2018-05-26T20:30:33.520Z,17.95
2018-05-26T20:32:59.273Z,17.87
2018-05-26T20:35:24.999Z,17.80
2018-05-26T20:37:50.748Z,17.72
2018-05-26T20:40:16.477Z,17.68
2018-05-26T20:42:42.232Z,17.65
2018-05-26T20:45:07.956Z,17.64
2018-05-26T20:47:33.700Z,17.59
2018-05-26T20:49:59.476Z,17.67
2018-05-26T20:52:25.179Z,17.70
2018-05-26T20:54:50.916Z,17.73
2018-05-26T20:57:16.664Z,17.64
2018-05-26T20:59:42.403Z,17.50
2018-05-26T21:02:08.136Z,17.39
2018-05-26T21:04:33.869Z,17.35
2018-05-26T21:06:59.627Z,17.43
2018-05-26T21:09:25.402Z,17.42
2018-05-26T21:11:51.112Z,17.33
2018-05-26T21:14:16.858Z,17.44
2018-05-26T21:16:42.596Z,17.37
2018-05-26T21:19:08.367Z,17.32
2018-05-26T21:21:34.099Z,17.33
2018-05-26T21:23:59.839Z,17.36
2018-05-26T21:26:25.576Z,17.11
2018-05-26T21:28:51.330Z,17.14
2018-05-26T21:31:17.070Z,17.19
2018-05-26T21:33:42.812Z,17.23
2018-05-26T21:36:08.546Z,17.22
2018-05-26T21:38:34.295Z,17.04
2018-05-26T21:41:00.089Z,17.12
2018-05-26T21:43:25.824Z,17.17
2018-05-26T21:45:51.553Z,16.97
2018-05-26T21:48:17.304Z,16.97
2018-05-26T21:50:43.032Z,16.94
2018-05-26T21:53:08.772Z,17.00
2018-05-26T21:55:34.508Z,17.04
2018-05-26T21:58:00.295Z,16.93
2018-05-26T22:00:25.998Z,16.84
2018-05-26T22:02:51.732Z,16.92
2018-05-26T22:05:17.460Z,16.83
2018-05-26T22:07:43.200Z,16.80
2018-05-26T22:10:08.936Z,16.72
2018-05-26T22:12:34.684Z,16.55
2018-05-26T22:15:00.411Z,16.47
2018-05-26T22:17:26.144Z,16.63
2018-05-26T22:19:51.884Z,16.60
2018-05-26T22:22:17.604Z,16.56
2018-05-26T22:24:43.344Z,16.36
2018-05-26T22:27:09.075Z,16.21
2018-05-26T22:29:34.800Z,16.24
2018-05-26T22:32:00.525Z,16.22
2018-05-26T22:34:26.264Z,16.22
2018-05-26T22:36:51.976Z,16.16
2018-05-26T22:39:17.712Z,16.03
2018-05-26T22:41:43.936Z,16.15
2018-05-26T22:44:09.821Z,16.06
2018-05-26T22:46:35.657Z,15.88
2018-05-26T22:49:01.393Z,15.94
2018-05-26T22:51:27.151Z,16.01
2018-05-26T22:53:52.964Z,16.12
2018-05-26T22:56:18.830Z,16.16
2018-05-26T22:58:44.571Z,16.07
2018-05-26T23:01:10.300Z,15.88
2018-05-26T23:03:36.040Z,15.69
2018-05-26T23:06:01.761Z,15.47
2018-05-26T23:08:27.525Z,15.43
2018-05-26T23:10:53.269Z,15.35
2018-05-26T23:13:19.005Z,15.33
2018-05-26T23:15:44.742Z,15.53
2018-05-26T23:18:10.472Z,15.60
2018-05-26T23:20:36.202Z,15.41
2018-05-26T23:23:01.933Z,15.23
2018-05-26T23:25:27.669Z,15.17
2018-05-26T23:27:53.463Z,15.13
2018-05-26T23:30:19.197Z,15.10
2018-05-26T23:32:44.960Z,15.09
2018-05-26T23:35:10.707Z,15.05
2018-05-26T23:37:36.424Z,15.02
2018-05-26T23:40:02.167Z,15.04
2018-05-26T23:42:27.895Z,15.02
2018-05-26T23:44:53.632Z,15.02
2018-05-26T23:47:19.362Z,15.01
2018-05-26T23:49:45.092Z,15.00
2018-05-26T23:52:10.825Z,15.09
2018-05-26T23:54:36.566Z,15.09
2018-05-26T23:57:02.323Z,15.19
2018-05-26T23:59:28.029Z,15.36
